Virtual Cathay Airport Information Service

Osaka Kansai International Airport

ICAO: RJBB Country: Japan
Latitude: 34.4273 Longitude: 135.244
Latest Arrival : CPA502 (VHHH-RJBB) Latest Departure : CPA503 (RJBB-VHHH)


WX CaptureLIVE
Data provided by noaa.gov | Fetched at 18:18:32

METAR : RJBB 201000Z 25001KT CAVOK 16/11 Q1018 NOSIG

TAF : RJBB 200505Z 2006/2112 23004KT 9999 FEW035 BECMG 2011/2013 06008KT BECMG 2103/2106 29005KT BECMG 2109/2112 03012KT


Runway Data for RJBB
Data provided by openaviationdata.com

Runway ID Mag Var Hdg Length Elevation Surface ILS Freq ILS Id ILS Slope
6 -7 57° 11483 ft 15 ft Asphalt 108.1 IKD 3
24 -7 237° 11483 ft 15 ft Asphalt 110.7 IKN 3

Osaka Kansai International Airport, Japan
Use only for reference purposes



Not for navigational purposes.